sensor_id;sensor_type;location;lat;lon;timestamp;P1;durP1;ratioP1;P2;durP2;ratioP2
68655;SDS011;55638;51.122;13.606;2023-02-26T10:38:57;2.47;;;1.10;;
68655;SDS011;55638;51.122;13.606;2023-02-26T10:40:46;1.35;;;0.73;;
68655;SDS011;55638;51.122;13.606;2023-02-26T10:42:24;2.35;;;0.80;;
68655;SDS011;55638;51.122;13.606;2023-02-26T10:44:03;2.30;;;1.10;;
68655;SDS011;55638;51.122;13.606;2023-02-26T10:46:01;4.85;;;1.13;;
68655;SDS011;55638;51.122;13.606;2023-02-26T10:50:00;1.80;;;1.00;;
68655;SDS011;55638;51.122;13.606;2023-02-26T10:51:37;4.13;;;0.95;;
68655;SDS011;55638;51.122;13.606;2023-02-26T10:53:11;2.20;;;1.05;;
68655;SDS011;55638;51.122;13.606;2023-02-26T10:54:45;0.98;;;0.70;;
68655;SDS011;55638;51.122;13.606;2023-02-26T10:56:30;1.30;;;0.60;;
68655;SDS011;55638;51.122;13.606;2023-02-26T10:59:35;2.22;;;0.80;;
68655;SDS011;55638;51.122;13.606;2023-02-26T11:01:15;2.17;;;0.60;;
68655;SDS011;55638;51.122;13.606;2023-02-26T11:02:49;1.75;;;0.40;;
68655;SDS011;55638;51.122;13.606;2023-02-26T11:04:24;1.88;;;0.52;;
68655;SDS011;55638;51.122;13.606;2023-02-26T11:05:57;1.23;;;0.70;;
68655;SDS011;55638;51.122;13.606;2023-02-26T11:07:30;0.93;;;0.55;;
68655;SDS011;55638;51.122;13.606;2023-02-26T11:09:02;0.70;;;0.57;;
68655;SDS011;55638;51.122;13.606;2023-02-26T11:12:23;1.55;;;0.55;;
68655;SDS011;55638;51.122;13.606;2023-02-26T11:13:56;0.75;;;0.40;;
68655;SDS011;55638;51.122;13.606;2023-02-26T11:15:28;2.33;;;0.57;;
68655;SDS011;55638;51.122;13.606;2023-02-26T11:17:01;0.70;;;0.50;;
68655;SDS011;55638;51.122;13.606;2023-02-26T11:18:38;1.20;;;0.38;;
68655;SDS011;55638;51.122;13.606;2023-02-26T11:20:18;1.50;;;0.52;;
68655;SDS011;55638;51.122;13.606;2023-02-26T11:22:00;1.27;;;0.50;;
68655;SDS011;55638;51.122;13.606;2023-02-26T11:23:34;1.05;;;0.60;;
68655;SDS011;55638;51.122;13.606;2023-02-26T11:25:06;0.70;;;0.40;;
68655;SDS011;55638;51.122;13.606;2023-02-26T11:26:46;1.20;;;0.70;;
68655;SDS011;55638;51.122;13.606;2023-02-26T11:28:23;2.85;;;0.60;;
68655;SDS011;55638;51.122;13.606;2023-02-26T11:30:05;1.60;;;0.70;;
68655;SDS011;55638;51.122;13.606;2023-02-26T11:31:51;1.23;;;0.50;;
68655;SDS011;55638;51.122;13.606;2023-02-26T11:33:27;1.05;;;0.60;;
68655;SDS011;55638;51.122;13.606;2023-02-26T11:35:07;1.58;;;0.60;;
68655;SDS011;55638;51.122;13.606;2023-02-26T11:36:40;1.38;;;0.60;;
68655;SDS011;55638;51.122;13.606;2023-02-26T11:38:19;1.77;;;0.57;;
68655;SDS011;55638;51.122;13.606;2023-02-26T11:39:57;0.80;;;0.52;;
68655;SDS011;55638;51.122;13.606;2023-02-26T11:41:30;1.17;;;0.50;;
68655;SDS011;55638;51.122;13.606;2023-02-26T11:43:10;1.60;;;0.40;;
68655;SDS011;55638;51.122;13.606;2023-02-26T11:44:45;2.58;;;0.80;;
68655;SDS011;55638;51.122;13.606;2023-02-26T11:46:18;1.17;;;0.50;;
68655;SDS011;55638;51.122;13.606;2023-02-26T11:47:57;1.55;;;0.50;;
68655;SDS011;55638;51.122;13.606;2023-02-26T11:49:32;0.60;;;0.30;;
68655;SDS011;55638;51.122;13.606;2023-02-26T11:51:04;1.58;;;0.60;;
68655;SDS011;55638;51.122;13.606;2023-02-26T11:52:39;0.80;;;0.30;;
68655;SDS011;55638;51.122;13.606;2023-02-26T11:54:20;0.95;;;0.40;;
68655;SDS011;55638;51.122;13.606;2023-02-26T11:55:57;1.38;;;0.30;;
68655;SDS011;55638;51.122;13.606;2023-02-26T11:57:34;1.65;;;0.40;;
68655;SDS011;55638;51.122;13.606;2023-02-26T11:59:16;1.73;;;0.40;;
68655;SDS011;55638;51.122;13.606;2023-02-26T12:00:52;1.02;;;0.60;;
68655;SDS011;55638;51.122;13.606;2023-02-26T12:02:32;1.08;;;0.40;;
68655;SDS011;55638;51.122;13.606;2023-02-26T12:04:05;0.80;;;0.32;;
68655;SDS011;55638;51.122;13.606;2023-02-26T12:05:41;0.63;;;0.30;;
68655;SDS011;55638;51.122;13.606;2023-02-26T12:07:14;1.05;;;0.40;;
68655;SDS011;55638;51.122;13.606;2023-02-26T12:08:47;0.80;;;0.38;;
68655;SDS011;55638;51.122;13.606;2023-02-26T12:10:21;1.58;;;0.40;;
68655;SDS011;55638;51.122;13.606;2023-02-26T12:12:04;1.05;;;0.30;;
68655;SDS011;55638;51.122;13.606;2023-02-26T12:15:57;0.90;;;0.40;;
68655;SDS011;55638;51.122;13.606;2023-02-26T12:17:41;1.17;;;0.30;;
68655;SDS011;55638;51.122;13.606;2023-02-26T12:25:01;1.10;;;0.50;;
68655;SDS011;55638;51.122;13.606;2023-02-26T12:26:46;1.95;;;0.40;;
68655;SDS011;55638;51.122;13.606;2023-02-26T12:30:38;2.03;;;0.60;;
68655;SDS011;55638;51.122;13.606;2023-02-26T12:34:39;1.00;;;0.47;;
68655;SDS011;55638;51.122;13.606;2023-02-26T12:38:42;1.58;;;0.40;;
68655;SDS011;55638;51.122;13.606;2023-02-26T12:42:35;0.60;;;0.40;;
68655;SDS011;55638;51.122;13.606;2023-02-26T12:44:38;0.98;;;0.43;;
68655;SDS011;55638;51.122;13.606;2023-02-26T12:48:16;1.63;;;0.60;;
68655;SDS011;55638;51.122;13.606;2023-02-26T12:56:02;0.85;;;0.50;;
68655;SDS011;55638;51.122;13.606;2023-02-26T12:59:57;1.60;;;0.47;;
68655;SDS011;55638;51.122;13.606;2023-02-26T13:03:35;1.65;;;0.40;;
68655;SDS011;55638;51.122;13.606;2023-02-26T13:08:49;0.43;;;0.30;;
68655;SDS011;55638;51.122;13.606;2023-02-26T13:10:36;1.58;;;0.38;;
68655;SDS011;55638;51.122;13.606;2023-02-26T13:20:01;0.88;;;0.50;;
68655;SDS011;55638;51.122;13.606;2023-02-26T13:21:50;1.75;;;0.57;;
68655;SDS011;55638;51.122;13.606;2023-02-26T13:25:43;2.30;;;0.70;;
68655;SDS011;55638;51.122;13.606;2023-02-26T13:27:24;1.08;;;0.60;;
68655;SDS011;55638;51.122;13.606;2023-02-26T13:29:02;1.77;;;0.60;;
68655;SDS011;55638;51.122;13.606;2023-02-26T13:30:44;0.82;;;0.50;;
68655;SDS011;55638;51.122;13.606;2023-02-26T13:32:22;1.27;;;0.40;;
68655;SDS011;55638;51.122;13.606;2023-02-26T13:33:58;1.27;;;0.40;;
68655;SDS011;55638;51.122;13.606;2023-02-26T13:35:37;1.23;;;0.63;;
68655;SDS011;55638;51.122;13.606;2023-02-26T13:37:23;1.20;;;0.50;;
68655;SDS011;55638;51.122;13.606;2023-02-26T13:39:10;1.35;;;0.50;;
68655;SDS011;55638;51.122;13.606;2023-02-26T13:40:59;0.68;;;0.40;;
68655;SDS011;55638;51.122;13.606;2023-02-26T13:42:50;0.90;;;0.50;;
68655;SDS011;55638;51.122;13.606;2023-02-26T13:44:56;1.98;;;0.68;;
68655;SDS011;55638;51.122;13.606;2023-02-26T13:48:44;1.30;;;0.43;;
68655;SDS011;55638;51.122;13.606;2023-02-26T13:52:55;0.75;;;0.30;;
68655;SDS011;55638;51.122;13.606;2023-02-26T13:54:34;1.13;;;0.30;;
68655;SDS011;55638;51.122;13.606;2023-02-26T13:56:16;1.38;;;0.28;;
68655;SDS011;55638;51.122;13.606;2023-02-26T13:57:52;0.75;;;0.30;;
68655;SDS011;55638;51.122;13.606;2023-02-26T13:59:28;1.85;;;0.35;;
68655;SDS011;55638;51.122;13.606;2023-02-26T14:02:46;1.60;;;0.50;;
68655;SDS011;55638;51.122;13.606;2023-02-26T14:04:22;0.93;;;0.20;;
68655;SDS011;55638;51.122;13.606;2023-02-26T14:06:07;1.13;;;0.30;;
68655;SDS011;55638;51.122;13.606;2023-02-26T14:07:52;1.25;;;0.30;;
68655;SDS011;55638;51.122;13.606;2023-02-26T14:11:42;1.65;;;0.20;;
68655;SDS011;55638;51.122;13.606;2023-02-26T14:13:37;0.63;;;0.40;;
68655;SDS011;55638;51.122;13.606;2023-02-26T14:16:43;0.75;;;0.20;;
68655;SDS011;55638;51.122;13.606;2023-02-26T14:18:24;1.25;;;0.30;;
68655;SDS011;55638;51.122;13.606;2023-02-26T14:20:16;0.68;;;0.22;;
68655;SDS011;55638;51.122;13.606;2023-02-26T14:21:54;1.23;;;0.40;;
68655;SDS011;55638;51.122;13.606;2023-02-26T14:23:32;0.80;;;0.40;;
68655;SDS011;55638;51.122;13.606;2023-02-26T14:30:32;0.60;;;0.35;;
68655;SDS011;55638;51.122;13.606;2023-02-26T14:32:14;0.98;;;0.30;;
68655;SDS011;55638;51.122;13.606;2023-02-26T14:33:59;2.63;;;0.47;;
68655;SDS011;55638;51.122;13.606;2023-02-26T14:35:41;1.48;;;0.70;;
68655;SDS011;55638;51.122;13.606;2023-02-26T14:37:16;2.00;;;0.50;;
68655;SDS011;55638;51.122;13.606;2023-02-26T14:38:53;1.23;;;0.52;;
68655;SDS011;55638;51.122;13.606;2023-02-26T14:40:29;0.70;;;0.47;;
68655;SDS011;55638;51.122;13.606;2023-02-26T14:42:12;0.82;;;0.30;;
68655;SDS011;55638;51.122;13.606;2023-02-26T14:43:49;1.65;;;0.47;;
68655;SDS011;55638;51.122;13.606;2023-02-26T14:47:03;0.60;;;0.40;;
68655;SDS011;55638;51.122;13.606;2023-02-26T14:48:35;0.30;;;0.20;;
68655;SDS011;55638;51.122;13.606;2023-02-26T14:50:18;0.85;;;0.30;;
68655;SDS011;55638;51.122;13.606;2023-02-26T14:52:03;0.70;;;0.30;;
68655;SDS011;55638;51.122;13.606;2023-02-26T14:55:43;1.15;;;0.30;;
68655;SDS011;55638;51.122;13.606;2023-02-26T14:57:49;1.73;;;0.30;;
68655;SDS011;55638;51.122;13.606;2023-02-26T15:01:23;0.73;;;0.20;;
68655;SDS011;55638;51.122;13.606;2023-02-26T15:04:49;1.40;;;0.32;;
68655;SDS011;55638;51.122;13.606;2023-02-26T15:06:47;1.00;;;0.40;;
68655;SDS011;55638;51.122;13.606;2023-02-26T15:12:20;2.03;;;0.30;;
68655;SDS011;55638;51.122;13.606;2023-02-26T15:14:13;0.70;;;0.30;;
68655;SDS011;55638;51.122;13.606;2023-02-26T15:16:00;1.50;;;0.40;;
68655;SDS011;55638;51.122;13.606;2023-02-26T15:19:32;0.40;;;0.20;;
68655;SDS011;55638;51.122;13.606;2023-02-26T15:23:02;0.80;;;0.30;;
68655;SDS011;55638;51.122;13.606;2023-02-26T15:24:36;0.75;;;0.30;;
68655;SDS011;55638;51.122;13.606;2023-02-26T15:26:44;0.85;;;0.28;;
68655;SDS011;55638;51.122;13.606;2023-02-26T15:28:30;0.30;;;0.13;;
68655;SDS011;55638;51.122;13.606;2023-02-26T15:30:08;0.82;;;0.22;;
68655;SDS011;55638;51.122;13.606;2023-02-26T15:31:51;0.50;;;0.30;;
68655;SDS011;55638;51.122;13.606;2023-02-26T15:33:26;0.95;;;0.20;;
68655;SDS011;55638;51.122;13.606;2023-02-26T15:34:59;0.88;;;0.20;;
68655;SDS011;55638;51.122;13.606;2023-02-26T15:36:35;0.98;;;0.32;;
68655;SDS011;55638;51.122;13.606;2023-02-26T15:38:07;0.73;;;0.28;;
68655;SDS011;55638;51.122;13.606;2023-02-26T15:39:40;0.45;;;0.20;;
68655;SDS011;55638;51.122;13.606;2023-02-26T15:41:12;0.45;;;0.20;;
68655;SDS011;55638;51.122;13.606;2023-02-26T15:42:47;1.27;;;0.50;;
68655;SDS011;55638;51.122;13.606;2023-02-26T15:44:24;1.58;;;0.32;;
68655;SDS011;55638;51.122;13.606;2023-02-26T15:45:58;1.00;;;0.40;;
68655;SDS011;55638;51.122;13.606;2023-02-26T15:47:33;0.60;;;0.30;;
68655;SDS011;55638;51.122;13.606;2023-02-26T15:49:07;0.80;;;0.38;;
68655;SDS011;55638;51.122;13.606;2023-02-26T15:51:00;0.60;;;0.30;;
68655;SDS011;55638;51.122;13.606;2023-02-26T15:52:34;1.10;;;0.40;;
68655;SDS011;55638;51.122;13.606;2023-02-26T15:54:06;1.00;;;0.32;;
68655;SDS011;55638;51.122;13.606;2023-02-26T15:55:41;0.75;;;0.30;;
68655;SDS011;55638;51.122;13.606;2023-02-26T15:57:20;0.35;;;0.20;;
68655;SDS011;55638;51.122;13.606;2023-02-26T15:58:59;1.00;;;0.50;;
68655;SDS011;55638;51.122;13.606;2023-02-26T16:00:34;1.08;;;0.30;;
68655;SDS011;55638;51.122;13.606;2023-02-26T16:02:09;0.98;;;0.40;;
68655;SDS011;55638;51.122;13.606;2023-02-26T16:03:43;0.82;;;0.30;;
68655;SDS011;55638;51.122;13.606;2023-02-26T16:05:15;0.63;;;0.20;;
68655;SDS011;55638;51.122;13.606;2023-02-26T16:06:52;0.60;;;0.30;;
68655;SDS011;55638;51.122;13.606;2023-02-26T16:08:27;1.50;;;0.20;;
68655;SDS011;55638;51.122;13.606;2023-02-26T16:10:03;1.02;;;0.28;;
68655;SDS011;55638;51.122;13.606;2023-02-26T16:11:38;0.50;;;0.20;;
68655;SDS011;55638;51.122;13.606;2023-02-26T16:13:13;0.60;;;0.40;;
68655;SDS011;55638;51.122;13.606;2023-02-26T16:14:49;1.17;;;0.40;;
68655;SDS011;55638;51.122;13.606;2023-02-26T16:16:25;0.55;;;0.30;;
68655;SDS011;55638;51.122;13.606;2023-02-26T16:18:01;1.27;;;0.30;;
68655;SDS011;55638;51.122;13.606;2023-02-26T16:19:54;0.70;;;0.30;;
68655;SDS011;55638;51.122;13.606;2023-02-26T16:21:30;0.88;;;0.20;;
68655;SDS011;55638;51.122;13.606;2023-02-26T16:23:08;1.63;;;0.20;;
68655;SDS011;55638;51.122;13.606;2023-02-26T16:24:51;2.05;;;0.20;;
68655;SDS011;55638;51.122;13.606;2023-02-26T16:26:29;1.67;;;0.40;;
68655;SDS011;55638;51.122;13.606;2023-02-26T16:28:05;1.58;;;0.40;;
68655;SDS011;55638;51.122;13.606;2023-02-26T16:29:47;0.68;;;0.30;;
68655;SDS011;55638;51.122;13.606;2023-02-26T16:31:23;0.20;;;0.20;;
68655;SDS011;55638;51.122;13.606;2023-02-26T16:32:56;1.15;;;0.38;;
68655;SDS011;55638;51.122;13.606;2023-02-26T16:34:32;1.35;;;0.40;;
68655;SDS011;55638;51.122;13.606;2023-02-26T16:36:11;1.15;;;0.38;;
68655;SDS011;55638;51.122;13.606;2023-02-26T16:37:46;0.40;;;0.20;;
68655;SDS011;55638;51.122;13.606;2023-02-26T16:39:24;1.42;;;0.20;;
68655;SDS011;55638;51.122;13.606;2023-02-26T16:40:59;0.60;;;0.30;;
68655;SDS011;55638;51.122;13.606;2023-02-26T16:42:43;0.80;;;0.35;;
68655;SDS011;55638;51.122;13.606;2023-02-26T16:48:13;2.58;;;0.80;;
68655;SDS011;55638;51.122;13.606;2023-02-26T16:49:57;3.85;;;1.20;;
68655;SDS011;55638;51.122;13.606;2023-02-26T16:51:29;2.65;;;1.52;;
68655;SDS011;55638;51.122;13.606;2023-02-26T16:53:15;3.47;;;1.42;;
68655;SDS011;55638;51.122;13.606;2023-02-26T16:54:52;3.28;;;1.60;;
68655;SDS011;55638;51.122;13.606;2023-02-26T16:56:31;3.88;;;1.67;;
68655;SDS011;55638;51.122;13.606;2023-02-26T16:58:10;5.28;;;2.30;;
68655;SDS011;55638;51.122;13.606;2023-02-26T16:59:49;6.90;;;2.95;;
68655;SDS011;55638;51.122;13.606;2023-02-26T17:01:24;7.90;;;2.95;;
68655;SDS011;55638;51.122;13.606;2023-02-26T17:02:58;7.95;;;3.38;;
68655;SDS011;55638;51.122;13.606;2023-02-26T17:04:39;8.52;;;3.47;;
68655;SDS011;55638;51.122;13.606;2023-02-26T17:06:12;10.93;;;4.40;;
68655;SDS011;55638;51.122;13.606;2023-02-26T17:07:51;10.02;;;4.18;;
68655;SDS011;55638;51.122;13.606;2023-02-26T17:11:17;11.57;;;4.25;;
68655;SDS011;55638;51.122;13.606;2023-02-26T17:12:52;7.00;;;3.40;;
68655;SDS011;55638;51.122;13.606;2023-02-26T17:14:36;6.97;;;3.13;;
68655;SDS011;55638;51.122;13.606;2023-02-26T17:16:11;5.85;;;2.97;;
68655;SDS011;55638;51.122;13.606;2023-02-26T17:17:44;6.45;;;3.30;;
68655;SDS011;55638;51.122;13.606;2023-02-26T17:19:16;6.82;;;2.58;;
68655;SDS011;55638;51.122;13.606;2023-02-26T17:20:49;6.57;;;2.78;;
68655;SDS011;55638;51.122;13.606;2023-02-26T17:22:24;5.15;;;2.42;;
68655;SDS011;55638;51.122;13.606;2023-02-26T17:23:58;5.25;;;2.63;;
68655;SDS011;55638;51.122;13.606;2023-02-26T17:25:33;5.25;;;2.10;;
68655;SDS011;55638;51.122;13.606;2023-02-26T17:27:08;4.15;;;1.83;;
68655;SDS011;55638;51.122;13.606;2023-02-26T17:28:45;2.83;;;1.50;;
68655;SDS011;55638;51.122;13.606;2023-02-26T17:30:18;3.10;;;1.40;;
68655;SDS011;55638;51.122;13.606;2023-02-26T17:31:51;3.22;;;1.20;;
68655;SDS011;55638;51.122;13.606;2023-02-26T17:33:24;1.27;;;0.70;;
68655;SDS011;55638;51.122;13.606;2023-02-26T17:34:56;2.20;;;0.90;;
68655;SDS011;55638;51.122;13.606;2023-02-26T17:36:28;1.77;;;0.82;;
68655;SDS011;55638;51.122;13.606;2023-02-26T17:38:01;2.13;;;0.65;;
68655;SDS011;55638;51.122;13.606;2023-02-26T17:39:33;1.77;;;0.88;;
68655;SDS011;55638;51.122;13.606;2023-02-26T17:41:04;1.10;;;0.52;;
68655;SDS011;55638;51.122;13.606;2023-02-26T17:42:36;1.10;;;0.60;;
68655;SDS011;55638;51.122;13.606;2023-02-26T17:44:08;1.85;;;0.47;;
68655;SDS011;55638;51.122;13.606;2023-02-26T17:45:40;0.95;;;0.50;;
68655;SDS011;55638;51.122;13.606;2023-02-26T17:47:19;1.40;;;0.75;;
68655;SDS011;55638;51.122;13.606;2023-02-26T17:48:53;1.17;;;0.60;;
68655;SDS011;55638;51.122;13.606;2023-02-26T17:52:12;1.77;;;1.00;;
68655;SDS011;55638;51.122;13.606;2023-02-26T17:53:44;1.60;;;0.85;;
68655;SDS011;55638;51.122;13.606;2023-02-26T17:55:17;3.40;;;1.20;;
68655;SDS011;55638;51.122;13.606;2023-02-26T17:56:49;2.00;;;0.80;;
68655;SDS011;55638;51.122;13.606;2023-02-26T17:58:28;1.83;;;1.00;;
68655;SDS011;55638;51.122;13.606;2023-02-26T18:00:04;1.35;;;0.77;;
68655;SDS011;55638;51.122;13.606;2023-02-26T18:01:45;2.42;;;1.20;;
68655;SDS011;55638;51.122;13.606;2023-02-26T18:03:17;2.05;;;1.10;;
68655;SDS011;55638;51.122;13.606;2023-02-26T18:04:50;2.95;;;1.27;;
68655;SDS011;55638;51.122;13.606;2023-02-26T18:06:23;1.75;;;1.02;;
68655;SDS011;55638;51.122;13.606;2023-02-26T18:07:55;2.00;;;1.20;;
68655;SDS011;55638;51.122;13.606;2023-02-26T18:09:27;2.58;;;1.33;;
68655;SDS011;55638;51.122;13.606;2023-02-26T18:11:00;1.42;;;0.90;;
68655;SDS011;55638;51.122;13.606;2023-02-26T18:12:32;2.55;;;0.98;;
68655;SDS011;55638;51.122;13.606;2023-02-26T18:14:04;2.55;;;1.20;;
68655;SDS011;55638;51.122;13.606;2023-02-26T18:15:36;3.10;;;1.27;;
68655;SDS011;55638;51.122;13.606;2023-02-26T18:17:11;2.63;;;1.23;;
68655;SDS011;55638;51.122;13.606;2023-02-26T18:18:45;4.38;;;1.70;;
68655;SDS011;55638;51.122;13.606;2023-02-26T18:20:18;4.82;;;1.73;;
68655;SDS011;55638;51.122;13.606;2023-02-26T18:21:54;3.53;;;1.80;;
68655;SDS011;55638;51.122;13.606;2023-02-26T18:23:26;6.85;;;2.55;;
68655;SDS011;55638;51.122;13.606;2023-02-26T18:24:58;4.28;;;1.80;;
68655;SDS011;55638;51.122;13.606;2023-02-26T18:26:31;5.18;;;2.45;;
68655;SDS011;55638;51.122;13.606;2023-02-26T18:28:03;9.43;;;3.42;;
68655;SDS011;55638;51.122;13.606;2023-02-26T18:29:36;8.30;;;3.65;;
68655;SDS011;55638;51.122;13.606;2023-02-26T18:31:08;10.55;;;4.30;;
68655;SDS011;55638;51.122;13.606;2023-02-26T18:32:41;10.88;;;4.82;;
68655;SDS011;55638;51.122;13.606;2023-02-26T18:34:13;10.35;;;4.88;;
68655;SDS011;55638;51.122;13.606;2023-02-26T18:35:45;11.85;;;5.40;;
68655;SDS011;55638;51.122;13.606;2023-02-26T18:37:21;10.35;;;5.05;;
68655;SDS011;55638;51.122;13.606;2023-02-26T18:38:57;11.82;;;5.72;;
68655;SDS011;55638;51.122;13.606;2023-02-26T18:40:32;8.52;;;4.47;;
68655;SDS011;55638;51.122;13.606;2023-02-26T18:42:04;8.35;;;4.30;;
68655;SDS011;55638;51.122;13.606;2023-02-26T18:43:36;6.43;;;3.58;;
68655;SDS011;55638;51.122;13.606;2023-02-26T18:45:08;7.45;;;3.20;;
68655;SDS011;55638;51.122;13.606;2023-02-26T18:46:41;6.35;;;3.40;;
68655;SDS011;55638;51.122;13.606;2023-02-26T18:48:16;3.67;;;2.08;;
68655;SDS011;55638;51.122;13.606;2023-02-26T18:49:49;2.15;;;1.25;;
68655;SDS011;55638;51.122;13.606;2023-02-26T18:51:22;2.50;;;1.40;;
68655;SDS011;55638;51.122;13.606;2023-02-26T18:52:54;2.33;;;0.95;;
68655;SDS011;55638;51.122;13.606;2023-02-26T18:54:25;2.03;;;1.00;;
68655;SDS011;55638;51.122;13.606;2023-02-26T18:55:57;1.80;;;0.90;;
68655;SDS011;55638;51.122;13.606;2023-02-26T18:57:29;2.95;;;0.90;;
68655;SDS011;55638;51.122;13.606;2023-02-26T18:59:01;1.17;;;0.55;;
68655;SDS011;55638;51.122;13.606;2023-02-26T19:00:34;2.42;;;0.90;;
68655;SDS011;55638;51.122;13.606;2023-02-26T19:02:06;1.00;;;0.70;;
68655;SDS011;55638;51.122;13.606;2023-02-26T19:03:42;1.67;;;0.77;;
68655;SDS011;55638;51.122;13.606;2023-02-26T19:05:14;1.75;;;0.80;;
68655;SDS011;55638;51.122;13.606;2023-02-26T19:06:48;3.55;;;1.38;;
68655;SDS011;55638;51.122;13.606;2023-02-26T19:08:20;3.95;;;1.80;;
68655;SDS011;55638;51.122;13.606;2023-02-26T19:09:52;4.95;;;2.00;;
68655;SDS011;55638;51.122;13.606;2023-02-26T19:11:24;4.40;;;2.28;;
68655;SDS011;55638;51.122;13.606;2023-02-26T19:12:57;3.90;;;2.40;;
68655;SDS011;55638;51.122;13.606;2023-02-26T19:14:28;6.03;;;2.80;;
68655;SDS011;55638;51.122;13.606;2023-02-26T19:16:00;6.78;;;3.53;;
68655;SDS011;55638;51.122;13.606;2023-02-26T19:17:32;7.43;;;4.07;;
68655;SDS011;55638;51.122;13.606;2023-02-26T19:19:05;9.60;;;4.82;;
68655;SDS011;55638;51.122;13.606;2023-02-26T19:20:38;10.18;;;4.70;;
68655;SDS011;55638;51.122;13.606;2023-02-26T19:22:12;9.95;;;5.53;;
68655;SDS011;55638;51.122;13.606;2023-02-26T19:23:44;10.07;;;5.15;;
68655;SDS011;55638;51.122;13.606;2023-02-26T19:25:16;10.32;;;6.07;;
68655;SDS011;55638;51.122;13.606;2023-02-26T19:26:54;8.13;;;4.57;;
68655;SDS011;55638;51.122;13.606;2023-02-26T19:28:26;7.60;;;4.28;;
68655;SDS011;55638;51.122;13.606;2023-02-26T19:29:58;6.75;;;4.07;;
68655;SDS011;55638;51.122;13.606;2023-02-26T19:31:31;6.25;;;3.47;;
68655;SDS011;55638;51.122;13.606;2023-02-26T19:33:03;4.85;;;3.10;;
68655;SDS011;55638;51.122;13.606;2023-02-26T19:34:34;4.82;;;2.67;;
68655;SDS011;55638;51.122;13.606;2023-02-26T19:36:06;3.22;;;2.30;;
68655;SDS011;55638;51.122;13.606;2023-02-26T19:37:40;4.20;;;2.15;;
68655;SDS011;55638;51.122;13.606;2023-02-26T19:39:12;5.57;;;1.95;;
68655;SDS011;55638;51.122;13.606;2023-02-26T19:40:45;3.95;;;1.98;;
68655;SDS011;55638;51.122;13.606;2023-02-26T19:42:17;2.88;;;1.80;;
68655;SDS011;55638;51.122;13.606;2023-02-26T19:43:49;3.28;;;1.98;;
68655;SDS011;55638;51.122;13.606;2023-02-26T19:45:21;3.22;;;1.85;;
68655;SDS011;55638;51.122;13.606;2023-02-26T19:46:53;3.20;;;1.80;;
68655;SDS011;55638;51.122;13.606;2023-02-26T19:48:26;4.07;;;2.08;;
68655;SDS011;55638;51.122;13.606;2023-02-26T19:49:57;3.13;;;2.22;;
68655;SDS011;55638;51.122;13.606;2023-02-26T19:51:29;3.85;;;2.15;;
68655;SDS011;55638;51.122;13.606;2023-02-26T19:53:01;3.45;;;2.25;;
68655;SDS011;55638;51.122;13.606;2023-02-26T19:54:34;3.17;;;2.03;;
68655;SDS011;55638;51.122;13.606;2023-02-26T19:56:06;2.95;;;1.73;;
68655;SDS011;55638;51.122;13.606;2023-02-26T19:57:38;3.40;;;1.67;;
68655;SDS011;55638;51.122;13.606;2023-02-26T19:59:10;3.08;;;1.70;;
68655;SDS011;55638;51.122;13.606;2023-02-26T20:00:42;2.13;;;1.35;;
68655;SDS011;55638;51.122;13.606;2023-02-26T20:02:14;1.80;;;1.02;;
68655;SDS011;55638;51.122;13.606;2023-02-26T20:03:46;2.33;;;1.33;;
68655;SDS011;55638;51.122;13.606;2023-02-26T20:05:19;3.40;;;1.33;;
68655;SDS011;55638;51.122;13.606;2023-02-26T20:06:51;2.25;;;1.30;;
68655;SDS011;55638;51.122;13.606;2023-02-26T20:08:24;2.00;;;1.15;;
68655;SDS011;55638;51.122;13.606;2023-02-26T20:09:58;3.35;;;1.40;;
68655;SDS011;55638;51.122;13.606;2023-02-26T20:11:32;1.88;;;1.17;;
68655;SDS011;55638;51.122;13.606;2023-02-26T20:13:04;3.58;;;1.65;;
68655;SDS011;55638;51.122;13.606;2023-02-26T20:14:36;3.95;;;1.88;;
68655;SDS011;55638;51.122;13.606;2023-02-26T20:16:08;2.85;;;1.40;;
68655;SDS011;55638;51.122;13.606;2023-02-26T20:17:42;3.65;;;1.92;;
68655;SDS011;55638;51.122;13.606;2023-02-26T20:19:14;4.50;;;2.50;;
68655;SDS011;55638;51.122;13.606;2023-02-26T20:20:45;5.28;;;2.90;;
68655;SDS011;55638;51.122;13.606;2023-02-26T20:22:17;5.20;;;2.90;;
68655;SDS011;55638;51.122;13.606;2023-02-26T20:23:51;6.50;;;3.35;;
68655;SDS011;55638;51.122;13.606;2023-02-26T20:25:23;5.18;;;2.78;;
68655;SDS011;55638;51.122;13.606;2023-02-26T20:26:56;5.80;;;2.60;;
68655;SDS011;55638;51.122;13.606;2023-02-26T20:28:28;4.13;;;2.40;;
68655;SDS011;55638;51.122;13.606;2023-02-26T20:30:00;4.15;;;2.22;;
68655;SDS011;55638;51.122;13.606;2023-02-26T20:31:33;2.63;;;1.48;;
68655;SDS011;55638;51.122;13.606;2023-02-26T20:33:05;2.63;;;1.27;;
68655;SDS011;55638;51.122;13.606;2023-02-26T20:34:37;2.42;;;1.30;;
68655;SDS011;55638;51.122;13.606;2023-02-26T20:36:09;3.00;;;1.30;;
68655;SDS011;55638;51.122;13.606;2023-02-26T20:37:41;2.72;;;0.90;;
68655;SDS011;55638;51.122;13.606;2023-02-26T20:39:13;1.65;;;1.00;;
68655;SDS011;55638;51.122;13.606;2023-02-26T20:40:46;2.53;;;1.30;;
68655;SDS011;55638;51.122;13.606;2023-02-26T20:42:19;1.65;;;1.10;;
68655;SDS011;55638;51.122;13.606;2023-02-26T20:43:50;2.70;;;1.30;;
68655;SDS011;55638;51.122;13.606;2023-02-26T20:45:22;2.92;;;1.08;;
68655;SDS011;55638;51.122;13.606;2023-02-26T20:46:54;2.55;;;1.38;;
68655;SDS011;55638;51.122;13.606;2023-02-26T20:48:26;2.38;;;1.27;;
68655;SDS011;55638;51.122;13.606;2023-02-26T20:49:59;2.40;;;1.60;;
68655;SDS011;55638;51.122;13.606;2023-02-26T20:51:31;4.13;;;2.03;;
68655;SDS011;55638;51.122;13.606;2023-02-26T20:53:04;4.68;;;2.25;;
68655;SDS011;55638;51.122;13.606;2023-02-26T20:54:37;4.88;;;2.60;;
68655;SDS011;55638;51.122;13.606;2023-02-26T20:56:09;3.33;;;2.30;;
68655;SDS011;55638;51.122;13.606;2023-02-26T20:57:41;4.60;;;2.30;;
68655;SDS011;55638;51.122;13.606;2023-02-26T20:59:14;3.90;;;2.30;;
68655;SDS011;55638;51.122;13.606;2023-02-26T21:00:46;5.03;;;2.50;;
68655;SDS011;55638;51.122;13.606;2023-02-26T21:02:18;4.22;;;2.30;;
68655;SDS011;55638;51.122;13.606;2023-02-26T21:03:51;4.32;;;2.65;;
68655;SDS011;55638;51.122;13.606;2023-02-26T21:05:24;4.35;;;2.60;;
68655;SDS011;55638;51.122;13.606;2023-02-26T21:06:56;5.60;;;3.03;;
68655;SDS011;55638;51.122;13.606;2023-02-26T21:08:43;3.72;;;2.40;;
68655;SDS011;55638;51.122;13.606;2023-02-26T21:10:16;4.03;;;2.35;;
68655;SDS011;55638;51.122;13.606;2023-02-26T21:11:48;4.38;;;2.25;;
68655;SDS011;55638;51.122;13.606;2023-02-26T21:13:22;4.65;;;2.33;;
68655;SDS011;55638;51.122;13.606;2023-02-26T21:14:54;3.47;;;2.10;;
68655;SDS011;55638;51.122;13.606;2023-02-26T21:16:26;4.68;;;2.55;;
68655;SDS011;55638;51.122;13.606;2023-02-26T21:18:01;4.15;;;2.33;;
68655;SDS011;55638;51.122;13.606;2023-02-26T21:19:32;3.58;;;2.22;;
68655;SDS011;55638;51.122;13.606;2023-02-26T21:21:04;3.88;;;2.20;;
68655;SDS011;55638;51.122;13.606;2023-02-26T21:22:36;3.42;;;2.15;;
68655;SDS011;55638;51.122;13.606;2023-02-26T21:24:09;3.55;;;1.80;;
68655;SDS011;55638;51.122;13.606;2023-02-26T21:25:40;3.60;;;2.05;;
68655;SDS011;55638;51.122;13.606;2023-02-26T21:27:12;2.75;;;2.10;;
68655;SDS011;55638;51.122;13.606;2023-02-26T21:28:47;3.08;;;1.80;;
68655;SDS011;55638;51.122;13.606;2023-02-26T21:30:19;2.97;;;1.60;;
68655;SDS011;55638;51.122;13.606;2023-02-26T21:31:51;2.50;;;1.35;;
68655;SDS011;55638;51.122;13.606;2023-02-26T21:33:24;4.68;;;1.67;;
68655;SDS011;55638;51.122;13.606;2023-02-26T21:34:56;3.30;;;1.40;;